sensor_id;sensor_type;location;lat;lon;timestamp;temperature;humidity
1411;DHT22;700;51.906;8.404;2022-08-02T00:00:23;19.00;99.90
1411;DHT22;700;51.906;8.404;2022-08-02T00:05:24;18.90;99.90
1411;DHT22;700;51.906;8.404;2022-08-02T00:10:27;18.90;99.90
1411;DHT22;700;51.906;8.404;2022-08-02T00:15:28;18.80;99.90
1411;DHT22;700;51.906;8.404;2022-08-02T00:20:28;18.70;99.90
1411;DHT22;700;51.906;8.404;2022-08-02T00:25:31;18.60;99.90
1411;DHT22;700;51.906;8.404;2022-08-02T00:30:34;18.50;99.90
1411;DHT22;700;51.906;8.404;2022-08-02T00:35:35;18.40;99.90
1411;DHT22;700;51.906;8.404;2022-08-02T00:40:39;18.40;99.90
1411;DHT22;700;51.906;8.404;2022-08-02T00:45:42;18.40;99.90
1411;DHT22;700;51.906;8.404;2022-08-02T00:50:45;18.40;99.90
1411;DHT22;700;51.906;8.404;2022-08-02T00:55:45;18.40;99.90
1411;DHT22;700;51.906;8.404;2022-08-02T01:00:46;18.30;99.90
1411;DHT22;700;51.906;8.404;2022-08-02T01:05:47;18.20;99.90
1411;DHT22;700;51.906;8.404;2022-08-02T01:10:50;18.20;99.90
1411;DHT22;700;51.906;8.404;2022-08-02T01:15:57;18.10;99.90
1411;DHT22;700;51.906;8.404;2022-08-02T01:36:59;17.90;99.90
1411;DHT22;700;51.906;8.404;2022-08-02T01:42:01;17.90;99.90
1411;DHT22;700;51.906;8.404;2022-08-02T01:47:09;17.80;99.90
1411;DHT22;700;51.906;8.404;2022-08-02T01:52:14;17.80;99.90
1411;DHT22;700;51.906;8.404;2022-08-02T01:57:25;17.70;99.90
1411;DHT22;700;51.906;8.404;2022-08-02T02:02:30;17.50;99.90
1411;DHT22;700;51.906;8.404;2022-08-02T02:07:34;17.60;99.90
1411;DHT22;700;51.906;8.404;2022-08-02T02:12:41;17.70;99.90
1411;DHT22;700;51.906;8.404;2022-08-02T02:17:50;17.30;99.90
1411;DHT22;700;51.906;8.404;2022-08-02T02:22:51;17.30;99.90
1411;DHT22;700;51.906;8.404;2022-08-02T02:28:01;17.30;99.90
1411;DHT22;700;51.906;8.404;2022-08-02T02:33:05;17.20;99.90
1411;DHT22;700;51.906;8.404;2022-08-02T02:38:10;17.30;99.90
1411;DHT22;700;51.906;8.404;2022-08-02T02:43:16;17.20;99.90
1411;DHT22;700;51.906;8.404;2022-08-02T02:48:17;17.30;99.90
1411;DHT22;700;51.906;8.404;2022-08-02T02:53:24;17.30;99.90
1411;DHT22;700;51.906;8.404;2022-08-02T02:58:25;17.40;99.90
1411;DHT22;700;51.906;8.404;2022-08-02T03:03:26;17.40;99.90
1411;DHT22;700;51.906;8.404;2022-08-02T03:08:28;17.20;99.90
1411;DHT22;700;51.906;8.404;2022-08-02T03:13:31;17.30;99.90
1411;DHT22;700;51.906;8.404;2022-08-02T03:18:43;17.30;99.90
1411;DHT22;700;51.906;8.404;2022-08-02T03:23:44;17.30;99.90
1411;DHT22;700;51.906;8.404;2022-08-02T03:28:47;17.30;99.90
1411;DHT22;700;51.906;8.404;2022-08-02T03:33:48;17.30;99.90
1411;DHT22;700;51.906;8.404;2022-08-02T03:38:54;17.20;99.90
1411;DHT22;700;51.906;8.404;2022-08-02T03:43:56;17.20;99.90
1411;DHT22;700;51.906;8.404;2022-08-02T03:49:01;17.20;99.90
1411;DHT22;700;51.906;8.404;2022-08-02T03:54:02;17.20;99.90
1411;DHT22;700;51.906;8.404;2022-08-02T03:59:08;17.30;99.90
1411;DHT22;700;51.906;8.404;2022-08-02T04:04:09;17.30;99.90
1411;DHT22;700;51.906;8.404;2022-08-02T04:09:12;17.10;99.90
1411;DHT22;700;51.906;8.404;2022-08-02T04:14:13;17.20;99.90
1411;DHT22;700;51.906;8.404;2022-08-02T04:24:25;17.30;99.90
1411;DHT22;700;51.906;8.404;2022-08-02T04:29:27;17.50;99.90
1411;DHT22;700;51.906;8.404;2022-08-02T04:34:32;17.50;99.90
1411;DHT22;700;51.906;8.404;2022-08-02T04:39:33;17.40;99.90
1411;DHT22;700;51.906;8.404;2022-08-02T04:44:34;17.60;99.90
1411;DHT22;700;51.906;8.404;2022-08-02T04:49:37;17.60;99.90
1411;DHT22;700;51.906;8.404;2022-08-02T04:54:38;17.80;99.90
1411;DHT22;700;51.906;8.404;2022-08-02T04:59:38;17.80;99.90
1411;DHT22;700;51.906;8.404;2022-08-02T05:04:39;18.00;99.90
1411;DHT22;700;51.906;8.404;2022-08-02T05:09:42;18.20;99.90
1411;DHT22;700;51.906;8.404;2022-08-02T05:14:42;18.30;99.90
1411;DHT22;700;51.906;8.404;2022-08-02T05:19:43;18.30;99.90
1411;DHT22;700;51.906;8.404;2022-08-02T05:24:44;18.30;99.90
1411;DHT22;700;51.906;8.404;2022-08-02T05:29:44;18.30;99.90
1411;DHT22;700;51.906;8.404;2022-08-02T05:34:45;18.40;99.90
1411;DHT22;700;51.906;8.404;2022-08-02T05:39:48;18.50;99.90
1411;DHT22;700;51.906;8.404;2022-08-02T05:44:51;18.50;99.90
1411;DHT22;700;51.906;8.404;2022-08-02T05:49:54;18.70;99.90
1411;DHT22;700;51.906;8.404;2022-08-02T05:55:10;18.90;99.90
1411;DHT22;700;51.906;8.404;2022-08-02T06:00:16;19.00;99.90
1411;DHT22;700;51.906;8.404;2022-08-02T06:05:20;19.00;99.90
1411;DHT22;700;51.906;8.404;2022-08-02T06:10:21;18.90;99.90
1411;DHT22;700;51.906;8.404;2022-08-02T06:15:22;19.00;99.90
1411;DHT22;700;51.906;8.404;2022-08-02T06:20:23;19.00;99.90
1411;DHT22;700;51.906;8.404;2022-08-02T06:25:32;19.10;99.90
1411;DHT22;700;51.906;8.404;2022-08-02T06:30:35;19.10;99.90
1411;DHT22;700;51.906;8.404;2022-08-02T06:41:08;19.50;99.90
1411;DHT22;700;51.906;8.404;2022-08-02T06:46:11;19.50;99.90
1411;DHT22;700;51.906;8.404;2022-08-02T06:51:17;19.60;99.90
1411;DHT22;700;51.906;8.404;2022-08-02T06:56:20;19.60;99.90
1411;DHT22;700;51.906;8.404;2022-08-02T07:01:23;19.90;99.90
1411;DHT22;700;51.906;8.404;2022-08-02T07:06:23;20.10;99.90
1411;DHT22;700;51.906;8.404;2022-08-02T07:11:24;20.40;99.90
1411;DHT22;700;51.906;8.404;2022-08-02T07:16:25;20.30;99.90
1411;DHT22;700;51.906;8.404;2022-08-02T07:21:25;20.40;99.90
1411;DHT22;700;51.906;8.404;2022-08-02T07:26:26;20.60;99.90
1411;DHT22;700;51.906;8.404;2022-08-02T07:31:27;21.10;99.90
1411;DHT22;700;51.906;8.404;2022-08-02T07:36:28;21.30;99.90
1411;DHT22;700;51.906;8.404;2022-08-02T07:41:31;21.40;99.90
1411;DHT22;700;51.906;8.404;2022-08-02T07:46:32;21.80;99.90
1411;DHT22;700;51.906;8.404;2022-08-02T07:51:33;21.90;99.90
1411;DHT22;700;51.906;8.404;2022-08-02T07:56:35;22.20;99.90
1411;DHT22;700;51.906;8.404;2022-08-02T08:01:37;22.30;99.90
1411;DHT22;700;51.906;8.404;2022-08-02T08:06:40;22.60;99.90
1411;DHT22;700;51.906;8.404;2022-08-02T08:11:41;22.90;99.90
1411;DHT22;700;51.906;8.404;2022-08-02T08:16:42;23.00;99.90
1411;DHT22;700;51.906;8.404;2022-08-02T08:21:42;23.00;99.90
1411;DHT22;700;51.906;8.404;2022-08-02T08:26:46;22.60;99.90
1411;DHT22;700;51.906;8.404;2022-08-02T08:31:50;23.10;99.90
1411;DHT22;700;51.906;8.404;2022-08-02T08:36:50;23.20;99.90
1411;DHT22;700;51.906;8.404;2022-08-02T08:41:51;23.40;99.90
1411;DHT22;700;51.906;8.404;2022-08-02T08:46:56;23.60;99.90
1411;DHT22;700;51.906;8.404;2022-08-02T08:52:03;23.90;99.90
1411;DHT22;700;51.906;8.404;2022-08-02T08:57:07;24.20;99.90
1411;DHT22;700;51.906;8.404;2022-08-02T09:02:11;24.60;99.90
1411;DHT22;700;51.906;8.404;2022-08-02T09:07:14;25.00;99.90
1411;DHT22;700;51.906;8.404;2022-08-02T09:12:18;25.40;99.90
1411;DHT22;700;51.906;8.404;2022-08-02T09:17:21;25.70;99.90
1411;DHT22;700;51.906;8.404;2022-08-02T09:22:22;25.60;99.90
1411;DHT22;700;51.906;8.404;2022-08-02T09:27:25;25.70;99.90
1411;DHT22;700;51.906;8.404;2022-08-02T09:32:26;26.10;99.90
1411;DHT22;700;51.906;8.404;2022-08-02T09:37:31;26.70;99.90
1411;DHT22;700;51.906;8.404;2022-08-02T09:42:32;27.50;99.90
1411;DHT22;700;51.906;8.404;2022-08-02T09:47:32;30.70;99.90
1411;DHT22;700;51.906;8.404;2022-08-02T09:52:35;35.00;92.60
1411;DHT22;700;51.906;8.404;2022-08-02T09:57:37;36.20;76.90
1411;DHT22;700;51.906;8.404;2022-08-02T10:02:38;39.90;60.70
1411;DHT22;700;51.906;8.404;2022-08-02T10:07:41;41.40;53.80
1411;DHT22;700;51.906;8.404;2022-08-02T10:12:46;43.40;45.10
1411;DHT22;700;51.906;8.404;2022-08-02T10:17:47;45.90;40.50
1411;DHT22;700;51.906;8.404;2022-08-02T10:22:48;45.10;39.80
1411;DHT22;700;51.906;8.404;2022-08-02T10:27:51;46.10;39.10
1411;DHT22;700;51.906;8.404;2022-08-02T10:32:52;48.40;35.40
1411;DHT22;700;51.906;8.404;2022-08-02T10:37:59;48.10;34.40
1411;DHT22;700;51.906;8.404;2022-08-02T10:43:05;48.50;32.60
1411;DHT22;700;51.906;8.404;2022-08-02T10:48:07;47.30;32.40
1411;DHT22;700;51.906;8.404;2022-08-02T10:58:22;50.80;30.30
1411;DHT22;700;51.906;8.404;2022-08-02T11:08:28;53.30;28.30
1411;DHT22;700;51.906;8.404;2022-08-02T11:13:31;53.80;26.90
1411;DHT22;700;51.906;8.404;2022-08-02T11:24:30;49.20;28.10
1411;DHT22;700;51.906;8.404;2022-08-02T11:29:41;45.20;32.10
1411;DHT22;700;51.906;8.404;2022-08-02T11:34:47;44.70;34.00
1411;DHT22;700;51.906;8.404;2022-08-02T11:39:51;44.10;32.10
1411;DHT22;700;51.906;8.404;2022-08-02T11:44:52;41.80;35.20
1411;DHT22;700;51.906;8.404;2022-08-02T11:50:06;40.00;39.00
1411;DHT22;700;51.906;8.404;2022-08-02T11:55:08;41.20;37.40
1411;DHT22;700;51.906;8.404;2022-08-02T12:00:35;41.90;37.60
1411;DHT22;700;51.906;8.404;2022-08-02T12:05:39;44.40;33.90
1411;DHT22;700;51.906;8.404;2022-08-02T12:10:49;45.10;34.90
1411;DHT22;700;51.906;8.404;2022-08-02T12:15:50;43.10;35.10
1411;DHT22;700;51.906;8.404;2022-08-02T12:20:50;41.00;36.00
1411;DHT22;700;51.906;8.404;2022-08-02T12:26:06;40.50;37.50
1411;DHT22;700;51.906;8.404;2022-08-02T12:31:10;39.60;38.30
1411;DHT22;700;51.906;8.404;2022-08-02T12:36:17;40.00;38.60
1411;DHT22;700;51.906;8.404;2022-08-02T12:41:18;39.40;37.90
1411;DHT22;700;51.906;8.404;2022-08-02T12:46:20;37.70;41.60
1411;DHT22;700;51.906;8.404;2022-08-02T12:51:25;37.60;43.20
1411;DHT22;700;51.906;8.404;2022-08-02T12:56:32;37.90;42.50
1411;DHT22;700;51.906;8.404;2022-08-02T13:01:36;38.90;40.20
1411;DHT22;700;51.906;8.404;2022-08-02T13:06:39;40.90;39.90
1411;DHT22;700;51.906;8.404;2022-08-02T13:11:40;42.10;36.40
1411;DHT22;700;51.906;8.404;2022-08-02T13:16:45;41.30;36.50
1411;DHT22;700;51.906;8.404;2022-08-02T13:21:46;40.40;37.90
1411;DHT22;700;51.906;8.404;2022-08-02T13:26:47;37.50;42.10
1411;DHT22;700;51.906;8.404;2022-08-02T13:31:48;36.50;41.80
1411;DHT22;700;51.906;8.404;2022-08-02T13:36:49;35.40;43.80
1411;DHT22;700;51.906;8.404;2022-08-02T13:41:52;35.00;45.50
1411;DHT22;700;51.906;8.404;2022-08-02T13:46:53;36.00;44.00
1411;DHT22;700;51.906;8.404;2022-08-02T13:51:53;34.80;45.10
1411;DHT22;700;51.906;8.404;2022-08-02T13:56:54;34.50;46.70
1411;DHT22;700;51.906;8.404;2022-08-02T14:01:55;34.20;45.30
1411;DHT22;700;51.906;8.404;2022-08-02T14:06:57;35.00;45.70
1411;DHT22;700;51.906;8.404;2022-08-02T14:12:01;35.40;45.00
1411;DHT22;700;51.906;8.404;2022-08-02T14:17:01;34.20;47.60
1411;DHT22;700;51.906;8.404;2022-08-02T14:22:02;34.00;48.40
1411;DHT22;700;51.906;8.404;2022-08-02T14:27:03;34.80;48.00
1411;DHT22;700;51.906;8.404;2022-08-02T14:32:06;34.00;48.00
1411;DHT22;700;51.906;8.404;2022-08-02T14:37:07;34.50;49.00
1411;DHT22;700;51.906;8.404;2022-08-02T14:42:07;34.60;48.60
1411;DHT22;700;51.906;8.404;2022-08-02T14:47:08;35.30;48.70
1411;DHT22;700;51.906;8.404;2022-08-02T14:52:09;35.50;46.50
1411;DHT22;700;51.906;8.404;2022-08-02T14:57:12;34.60;48.40
1411;DHT22;700;51.906;8.404;2022-08-02T15:02:12;34.80;49.50
1411;DHT22;700;51.906;8.404;2022-08-02T15:07:13;34.50;49.40
1411;DHT22;700;51.906;8.404;2022-08-02T15:12:14;34.30;49.60
1411;DHT22;700;51.906;8.404;2022-08-02T15:17:15;34.10;50.00
1411;DHT22;700;51.906;8.404;2022-08-02T15:22:17;34.00;49.80
1411;DHT22;700;51.906;8.404;2022-08-02T15:27:18;33.80;51.00
1411;DHT22;700;51.906;8.404;2022-08-02T15:32:19;33.90;51.20
1411;DHT22;700;51.906;8.404;2022-08-02T15:37:22;33.60;51.70
1411;DHT22;700;51.906;8.404;2022-08-02T15:42:22;33.20;52.10
1411;DHT22;700;51.906;8.404;2022-08-02T15:47:23;32.80;53.20
1411;DHT22;700;51.906;8.404;2022-08-02T15:52:23;32.50;54.20
1411;DHT22;700;51.906;8.404;2022-08-02T15:57:24;32.40;53.60
1411;DHT22;700;51.906;8.404;2022-08-02T16:02:27;32.50;54.90
1411;DHT22;700;51.906;8.404;2022-08-02T16:07:31;32.30;55.00
1411;DHT22;700;51.906;8.404;2022-08-02T16:12:34;32.20;55.60
1411;DHT22;700;51.906;8.404;2022-08-02T16:17:35;31.90;56.40
1411;DHT22;700;51.906;8.404;2022-08-02T16:22:38;31.60;56.60
1411;DHT22;700;51.906;8.404;2022-08-02T16:27:43;31.80;57.00
1411;DHT22;700;51.906;8.404;2022-08-02T16:32:44;31.90;55.70
1411;DHT22;700;51.906;8.404;2022-08-02T16:37:47;31.80;58.00
1411;DHT22;700;51.906;8.404;2022-08-02T16:42:48;31.70;55.80
1411;DHT22;700;51.906;8.404;2022-08-02T16:47:49;31.80;56.30
1411;DHT22;700;51.906;8.404;2022-08-02T16:52:52;31.90;57.00
1411;DHT22;700;51.906;8.404;2022-08-02T16:57:53;31.90;56.30
1411;DHT22;700;51.906;8.404;2022-08-02T17:02:53;31.50;56.70
1411;DHT22;700;51.906;8.404;2022-08-02T17:07:54;31.40;56.60
1411;DHT22;700;51.906;8.404;2022-08-02T17:13:02;31.00;57.20
1411;DHT22;700;51.906;8.404;2022-08-02T17:18:05;31.00;58.00
1411;DHT22;700;51.906;8.404;2022-08-02T17:23:08;31.20;58.90
1411;DHT22;700;51.906;8.404;2022-08-02T17:28:14;31.30;58.40
1411;DHT22;700;51.906;8.404;2022-08-02T17:33:14;31.40;57.80
1411;DHT22;700;51.906;8.404;2022-08-02T17:38:16;31.20;58.10
1411;DHT22;700;51.906;8.404;2022-08-02T17:43:17;31.10;59.70
1411;DHT22;700;51.906;8.404;2022-08-02T17:48:18;30.80;60.70
1411;DHT22;700;51.906;8.404;2022-08-02T17:53:19;30.80;60.90
1411;DHT22;700;51.906;8.404;2022-08-02T17:58:19;30.70;60.70
1411;DHT22;700;51.906;8.404;2022-08-02T18:03:22;30.20;60.80
1411;DHT22;700;51.906;8.404;2022-08-02T18:08:23;30.10;60.90
1411;DHT22;700;51.906;8.404;2022-08-02T18:13:26;30.20;61.10
1411;DHT22;700;51.906;8.404;2022-08-02T18:18:30;30.10;62.10
1411;DHT22;700;51.906;8.404;2022-08-02T18:23:33;30.00;63.20
1411;DHT22;700;51.906;8.404;2022-08-02T18:28:34;30.10;63.40
1411;DHT22;700;51.906;8.404;2022-08-02T18:33:35;29.90;64.30
1411;DHT22;700;51.906;8.404;2022-08-02T18:38:40;29.90;63.90
1411;DHT22;700;51.906;8.404;2022-08-02T18:43:44;29.80;64.80
1411;DHT22;700;51.906;8.404;2022-08-02T18:48:46;29.70;66.50
1411;DHT22;700;51.906;8.404;2022-08-02T18:53:47;29.60;68.90
1411;DHT22;700;51.906;8.404;2022-08-02T18:58:53;29.40;70.90
1411;DHT22;700;51.906;8.404;2022-08-02T19:03:57;29.20;73.10
1411;DHT22;700;51.906;8.404;2022-08-02T19:08:58;29.10;75.30
1411;DHT22;700;51.906;8.404;2022-08-02T19:13:59;29.00;77.70
1411;DHT22;700;51.906;8.404;2022-08-02T19:19:06;28.90;79.10
1411;DHT22;700;51.906;8.404;2022-08-02T19:24:07;28.50;82.10
1411;DHT22;700;51.906;8.404;2022-08-02T19:29:07;28.30;86.60
1411;DHT22;700;51.906;8.404;2022-08-02T19:34:10;28.10;90.00
1411;DHT22;700;51.906;8.404;2022-08-02T19:39:11;27.90;91.10
1411;DHT22;700;51.906;8.404;2022-08-02T19:44:15;27.80;92.60
1411;DHT22;700;51.906;8.404;2022-08-02T19:49:17;27.60;94.60
1411;DHT22;700;51.906;8.404;2022-08-02T19:54:20;27.30;96.10
1411;DHT22;700;51.906;8.404;2022-08-02T19:59:23;27.10;98.50
1411;DHT22;700;51.906;8.404;2022-08-02T20:04:24;26.70;99.90
1411;DHT22;700;51.906;8.404;2022-08-02T20:09:24;26.70;99.90
1411;DHT22;700;51.906;8.404;2022-08-02T20:14:27;26.60;99.90
1411;DHT22;700;51.906;8.404;2022-08-02T20:19:28;26.30;99.90
1411;DHT22;700;51.906;8.404;2022-08-02T20:24:29;26.30;99.90
1411;DHT22;700;51.906;8.404;2022-08-02T20:29:29;26.10;99.90
1411;DHT22;700;51.906;8.404;2022-08-02T20:34:30;26.00;99.90
1411;DHT22;700;51.906;8.404;2022-08-02T20:39:33;25.90;99.90
1411;DHT22;700;51.906;8.404;2022-08-02T20:44:36;25.70;99.90
1411;DHT22;700;51.906;8.404;2022-08-02T20:49:39;25.70;99.90
1411;DHT22;700;51.906;8.404;2022-08-02T20:55:00;25.60;99.90
1411;DHT22;700;51.906;8.404;2022-08-02T21:00:00;25.40;99.90
1411;DHT22;700;51.906;8.404;2022-08-02T21:05:06;25.30;99.90
1411;DHT22;700;51.906;8.404;2022-08-02T21:10:09;25.30;99.90
1411;DHT22;700;51.906;8.404;2022-08-02T21:15:15;25.20;99.90
1411;DHT22;700;51.906;8.404;2022-08-02T21:20:20;25.10;99.90
1411;DHT22;700;51.906;8.404;2022-08-02T21:25:21;25.20;99.90
1411;DHT22;700;51.906;8.404;2022-08-02T21:30:22;25.20;99.90
1411;DHT22;700;51.906;8.404;2022-08-02T21:35:26;24.90;99.90
1411;DHT22;700;51.906;8.404;2022-08-02T21:40:29;24.80;99.90
1411;DHT22;700;51.906;8.404;2022-08-02T21:45:32;24.60;99.90
1411;DHT22;700;51.906;8.404;2022-08-02T21:50:34;24.60;99.90
1411;DHT22;700;51.906;8.404;2022-08-02T21:55:37;24.50;99.90
1411;DHT22;700;51.906;8.404;2022-08-02T22:00:38;24.30;99.90
1411;DHT22;700;51.906;8.404;2022-08-02T22:05:38;24.20;99.90
1411;DHT22;700;51.906;8.404;2022-08-02T22:10:41;24.10;99.90
1411;DHT22;700;51.906;8.404;2022-08-02T22:16:03;23.90;99.90
1411;DHT22;700;51.906;8.404;2022-08-02T22:21:09;23.90;99.90
1411;DHT22;700;51.906;8.404;2022-08-02T22:26:12;23.80;99.90
1411;DHT22;700;51.906;8.404;2022-08-02T22:31:13;23.70;99.90
1411;DHT22;700;51.906;8.404;2022-08-02T22:36:17;23.70;99.90
1411;DHT22;700;51.906;8.404;2022-08-02T22:41:18;23.70;99.90
1411;DHT22;700;51.906;8.404;2022-08-02T22:46:21;23.50;99.90
1411;DHT22;700;51.906;8.404;2022-08-02T22:51:24;23.40;99.90
1411;DHT22;700;51.906;8.404;2022-08-02T22:56:27;23.40;99.90
1411;DHT22;700;51.906;8.404;2022-08-02T23:01:27;23.10;99.90
1411;DHT22;700;51.906;8.404;2022-08-02T23:06:28;23.10;99.90
1411;DHT22;700;51.906;8.404;2022-08-02T23:11:28;23.00;99.90
1411;DHT22;700;51.906;8.404;2022-08-02T23:16:31;23.10;99.90
1411;DHT22;700;51.906;8.404;2022-08-02T23:21:51;22.80;99.90
1411;DHT22;700;51.906;8.404;2022-08-02T23:26:51;22.90;99.90
1411;DHT22;700;51.906;8.404;2022-08-02T23:31:52;23.10;99.90
1411;DHT22;700;51.906;8.404;2022-08-02T23:36:52;23.00;99.90
1411;DHT22;700;51.906;8.404;2022-08-02T23:41:53;22.90;99.90
1411;DHT22;700;51.906;8.404;2022-08-02T23:46:56;23.10;99.90
1411;DHT22;700;51.906;8.404;2022-08-02T23:51:59;22.80;99.90
1411;DHT22;700;51.906;8.404;2022-08-02T23:57:00;22.60;99.90
